Time;durP1;ratioP1;P1;durP2;ratioP2;P2;SDS_P1;SDS_P2;PMS_P1;PMS_P2;Temp;Humidity;BMP_temperature;BMP_pressure;BME280_temperature;BME280_humidity;BME280_pressure;Samples;Min_cycle;Max_cycle;Signal;HPM_P1;HPM_P2
2021/12/15 00:00:56;;;;;;;;;;;;;;;-143.90;100.00;55607.66;2084122;28;20031;-66
2021/12/15 00:02:20;;;;;;;;;;;;;;;-143.90;100.00;55645.38;2082385;28;19952;-65
2021/12/15 00:03:41;;;;;;;;;;;;;;;-143.90;100.00;55587.78;2082500;28;19990;-66
2021/12/15 00:05:02;;;;;;;;;;;;;;;-143.90;100.00;55591.75;2073248;28;19921;-66
2021/12/15 00:06:23;;;;;;;;;;;;;;;-143.90;100.00;55599.69;2079606;28;19921;-65
2021/12/15 00:07:44;;;;;;;;;;;;;;;-143.90;100.00;55621.53;2083057;28;19921;-65
2021/12/15 00:09:06;;;;;;;;;;;;;;;-143.90;100.00;55597.72;2082800;28;19953;-66
2021/12/15 00:10:27;;;;;;;;;;;;;;;-143.90;100.00;55631.47;2082720;28;20400;-66
2021/12/15 00:11:48;;;;;;;;;;;;;;;-143.90;100.00;55577.84;2082735;28;19928;-66
2021/12/15 00:13:11;;;;;;;;;;;;;;;-143.90;100.00;55643.41;2082740;28;19924;-65
2021/12/15 00:14:33;;;;;;;;;;;;;;;-143.90;100.00;55591.75;2088745;28;19936;-66
2021/12/15 00:15:53;;;;;;;;;;;;;;;-143.90;100.00;55560.00;2089737;28;20013;-66
2021/12/15 00:17:15;;;;;;;;;;;;;;;-143.90;100.00;55571.91;2090620;28;20485;-66
2021/12/15 00:18:41;;;;;;;;;;;;;;;-143.90;100.00;55567.94;2084503;28;19964;-66
2021/12/15 00:20:03;;;;;;;;;;;;;;;-143.90;100.00;55595.72;2088597;28;20063;-66
2021/12/15 00:21:23;;;;;;;;;;;;;;;-143.90;100.00;55599.69;2088763;28;19932;-66
2021/12/15 00:22:44;;;;;;;;;;;;;;;-143.90;100.00;55611.63;2090179;28;19921;-66
2021/12/15 00:24:05;;;;;;;;;;;;;;;-143.90;100.00;55591.75;2089741;28;20347;-66
2021/12/15 00:25:27;;;;;;;;;;;;;;;-143.90;100.00;55575.88;2088611;28;19928;-66
2021/12/15 00:26:48;;;;;;;;;;;;;;;-143.90;100.00;55587.78;2091005;28;19927;-66
2021/12/15 00:28:09;;;;;;;;;;;;;;;-143.90;100.00;55579.84;2090058;28;19967;-66
2021/12/15 00:29:30;;;;;;;;;;;;;;;-143.90;100.00;55605.66;2081581;28;19924;-66
2021/12/15 00:30:51;;;;;;;;;;;;;;;-143.90;100.00;55581.84;2081053;28;19929;-66
2021/12/15 00:32:11;;;;;;;;;;;;;;;-143.90;100.00;55607.66;2087457;28;20554;-65
2021/12/15 00:33:33;;;;;;;;;;;;;;;-143.90;100.00;55599.69;2089957;28;19924;-66
2021/12/15 00:34:53;;;;;;;;;;;;;;;-143.90;100.00;55579.84;2089418;28;19974;-66
2021/12/15 00:36:14;;;;;;;;;;;;;;;-143.90;100.00;55583.81;2091118;28;19964;-66
2021/12/15 00:37:35;;;;;;;;;;;;;;;-143.90;100.00;55599.69;2082366;28;19920;-66
2021/12/15 00:38:55;;;;;;;;;;;;;;;-143.90;100.00;55591.75;2086301;28;19920;-66
2021/12/15 00:40:17;;;;;;;;;;;;;;;-143.90;100.00;55587.78;2088074;28;19921;-66
2021/12/15 00:41:38;;;;;;;;;;;;;;;-143.90;100.00;55575.88;2080367;28;20023;-66
2021/12/15 00:42:59;;;;;;;;;;;;;;;-143.90;100.00;55591.75;2088038;28;19924;-66
2021/12/15 00:44:20;;;;;;;;;;;;;;;-143.90;100.00;55589.78;2090057;28;20391;-65
2021/12/15 00:45:40;;;;;;;;;;;;;;;-143.90;100.00;55591.75;2089186;28;19920;-66
2021/12/15 00:47:02;;;;;;;;;;;;;;;-143.90;100.00;55607.66;2088071;28;19921;-66
2021/12/15 00:48:23;;;;;;;;;;;;;;;-143.90;100.00;55603.69;2089324;28;19928;-66
2021/12/15 00:49:45;;;;;;;;;;;;;;;-143.90;100.00;55575.88;2084778;28;19925;-66
2021/12/15 00:51:05;;;;;;;;;;;;;;;-143.90;100.00;55599.69;2079667;28;20331;-66
2021/12/15 00:52:26;;;;;;;;;;;;;;;-143.90;100.00;55591.75;2087355;28;19921;-66
2021/12/15 00:53:46;;;;;;;;;;;;;;;-143.90;100.00;55603.69;2089789;28;19931;-67
2021/12/15 00:55:09;;;;;;;;;;;;;;;-143.90;100.00;55611.63;2080700;28;19920;-66
2021/12/15 00:56:30;;;;;;;;;;;;;;;-143.90;100.00;55587.78;2080044;28;21211;-66
2021/12/15 00:57:51;;;;;;;;;;;;;;;-143.90;100.00;55623.53;2083175;28;19917;-66
2021/12/15 00:59:13;;;;;;;;;;;;;;;-143.90;100.00;55595.72;2080828;28;19920;-66
2021/12/15 01:00:41;;;;;;;;;;;;;;;-143.90;100.00;55619.56;2078083;28;19916;-66
2021/12/15 01:02:03;;;;;;;;;;;;;;;-143.90;100.00;55593.75;2077412;28;20758;-66
2021/12/15 01:03:24;;;;;;;;;;;;;;;-143.90;100.00;55611.63;2086732;28;19956;-66
2021/12/15 01:04:44;;;;;;;;;;;;;;;-143.90;100.00;55581.84;2082156;28;20281;-66
2021/12/15 01:06:08;;;;;;;;;;;;;;;-143.90;100.00;55623.53;2078955;28;20554;-66
2021/12/15 01:07:30;;;;;;;;;;;;;;;-143.90;100.00;55619.56;2079588;28;19964;-66
2021/12/15 01:08:55;;;;;;;;;;;;;;;-143.90;100.00;55587.78;2079994;28;19955;-66
2021/12/15 01:10:20;;;;;;;;;;;;;;;-143.90;100.00;55579.84;2085455;28;19921;-66
2021/12/15 01:19:54;;;;;;;;;;;;;;;-143.90;100.00;55601.69;2082052;28;20394;-66
2021/12/15 01:21:15;;;;;;;;;;;;;;;-143.90;100.00;55611.63;2082454;28;20007;-66
2021/12/15 01:22:40;;;;;;;;;;;;;;;-143.90;100.00;55573.88;2081158;28;19974;-66
2021/12/15 01:24:01;;;;;;;;;;;;;;;-143.90;100.00;55575.88;2081952;28;19924;-66
2021/12/15 01:25:30;;;;;;;;;;;;;;;-143.90;100.00;55619.56;2074352;28;20011;-66
2021/12/15 01:26:52;;;;;;;;;;;;;;;-143.90;100.00;55599.69;2080792;28;19920;-66
2021/12/15 01:28:13;;;;;;;;;;;;;;;-143.90;100.00;55627.50;2074143;28;19984;-66
2021/12/15 01:29:34;;;;;;;;;;;;;;;-143.90;100.00;55591.75;2079254;28;19921;-67
2021/12/15 01:30:55;;;;;;;;;;;;;;;-143.90;100.00;55603.69;2073321;28;19928;-66
2021/12/15 01:32:15;;;;;;;;;;;;;;;-143.90;100.00;55591.75;2069787;28;20036;-66
2021/12/15 01:33:37;;;;;;;;;;;;;;;-143.90;100.00;55615.59;2078828;28;19932;-66
2021/12/15 01:34:57;;;;;;;;;;;;;;;-143.90;100.00;55587.78;2073674;28;19929;-66
2021/12/15 01:36:19;;;;;;;;;;;;;;;-143.90;100.00;55587.78;2079155;28;19921;-66
2021/12/15 01:37:40;;;;;;;;;;;;;;;-143.90;100.00;55579.84;2081720;28;19936;-66
2021/12/15 01:39:02;;;;;;;;;;;;;;;-143.90;100.00;55603.69;2081939;28;19932;-66
2021/12/15 01:40:33;;;;;;;;;;;;;;;-143.90;100.00;55611.63;2072418;28;19925;-66
2021/12/15 01:41:55;;;;;;;;;;;;;;;-143.90;100.00;55603.69;2079687;28;20606;-66
2021/12/15 01:43:25;;;;;;;;;;;;;;;-143.90;100.00;55599.69;2074271;28;19925;-66
2021/12/15 01:48:07;;;;;;;;;;;;;;;-143.90;100.00;55603.69;2072866;28;19925;-67
2021/12/15 01:49:31;;;;;;;;;;;;;;;-143.90;100.00;55587.78;2078242;28;19925;-66
2021/12/15 01:50:52;;;;;;;;;;;;;;;-143.90;100.00;55575.88;2083086;28;19921;-67
2021/12/15 01:52:21;;;;;;;;;;;;;;;-143.90;100.00;55587.78;2072788;28;19928;-66
2021/12/15 01:53:42;;;;;;;;;;;;;;;-143.90;100.00;55563.97;2080930;28;19950;-66
2021/12/15 01:55:14;;;;;;;;;;;;;;;-143.90;100.00;55563.97;2079871;28;20289;-66
2021/12/15 01:56:35;;;;;;;;;;;;;;;-143.90;100.00;55599.69;2081166;28;20426;-67
2021/12/15 01:57:56;;;;;;;;;;;;;;;-143.90;100.00;55607.66;2073019;28;19995;-66
2021/12/15 01:59:19;;;;;;;;;;;;;;;-143.90;100.00;55579.84;2073537;28;19947;-66
2021/12/15 02:00:44;;;;;;;;;;;;;;;-143.90;100.00;55609.63;2073986;28;19969;-66
2021/12/15 02:02:05;;;;;;;;;;;;;;;-143.90;100.00;55587.78;2079652;28;19920;-67
2021/12/15 02:03:26;;;;;;;;;;;;;;;-143.90;100.00;55560.00;2081573;28;19975;-66
2021/12/15 02:04:47;;;;;;;;;;;;;;;-143.90;100.00;55599.69;2073108;28;20847;-66
2021/12/15 02:06:08;;;;;;;;;;;;;;;-143.90;100.00;55581.84;2070477;28;19925;-66
2021/12/15 02:07:30;;;;;;;;;;;;;;;-143.90;100.00;55609.63;2070599;28;19935;-66
2021/12/15 02:08:52;;;;;;;;;;;;;;;-143.90;100.00;55583.81;2070418;28;19921;-67
2021/12/15 02:10:12;;;;;;;;;;;;;;;-143.90;100.00;55585.81;2080072;28;19924;-66
2021/12/15 02:11:33;;;;;;;;;;;;;;;-143.90;100.00;55581.84;2080500;28;20008;-66
2021/12/15 02:12:54;;;;;;;;;;;;;;;-143.90;100.00;55607.66;2065034;28;19980;-66
2021/12/15 02:14:15;;;;;;;;;;;;;;;-143.90;100.00;55603.69;2080139;28;19979;-66
2021/12/15 02:15:41;;;;;;;;;;;;;;;-143.90;100.00;55558.00;2082001;28;19921;-66
2021/12/15 02:17:02;;;;;;;;;;;;;;;-143.90;100.00;55623.53;2072868;28;19936;-66
2021/12/15 02:18:26;;;;;;;;;;;;;;;-143.90;100.00;55593.75;2062396;28;19925;-67
2021/12/15 02:19:48;;;;;;;;;;;;;;;-143.90;100.00;55587.78;2072833;28;19920;-66
2021/12/15 02:21:13;;;;;;;;;;;;;;;-143.90;100.00;55635.44;2086527;28;19921;-66
2021/12/15 02:22:34;;;;;;;;;;;;;;;-143.90;100.00;55583.81;2081223;28;19920;-66
2021/12/15 02:23:57;;;;;;;;;;;;;;;-143.90;100.00;55591.75;2080931;28;19974;-66
2021/12/15 02:25:18;;;;;;;;;;;;;;;-143.90;100.00;55563.97;2080017;28;19979;-66
2021/12/15 02:26:45;;;;;;;;;;;;;;;-143.90;100.00;55599.69;2080242;28;19944;-67
2021/12/15 02:28:08;;;;;;;;;;;;;;;-143.90;100.00;55599.69;2088020;28;19964;-66
2021/12/15 02:29:33;;;;;;;;;;;;;;;-143.90;100.00;55619.56;2082275;28;20098;-66
2021/12/15 02:31:01;;;;;;;;;;;;;;;-143.90;100.00;55599.69;2073159;28;19921;-66
2021/12/15 02:32:57;;;;;;;;;;;;;;;-143.90;100.00;55619.56;2080446;28;19948;-66
2021/12/15 02:34:21;;;;;;;;;;;;;;;-143.90;100.00;55587.78;2080754;28;19939;-66
2021/12/15 02:37:22;;;;;;;;;;;;;;;-143.90;100.00;55615.59;2073246;28;20047;-66
2021/12/15 02:38:45;;;;;;;;;;;;;;;-143.90;100.00;55607.66;2076981;28;19967;-67
2021/12/15 02:40:10;;;;;;;;;;;;;;;-143.90;100.00;55554.03;2074022;28;19961;-66
2021/12/15 02:41:31;;;;;;;;;;;;;;;-143.90;100.00;55603.69;2080204;28;20302;-66
2021/12/15 02:42:52;;;;;;;;;;;;;;;-143.90;100.00;55619.56;2089084;28;19920;-66
2021/12/15 02:44:15;;;;;;;;;;;;;;;-143.90;100.00;55595.72;2085035;28;20302;-67
2021/12/15 02:45:35;;;;;;;;;;;;;;;-143.90;100.00;55579.84;2083785;28;19921;-66
2021/12/15 02:46:56;;;;;;;;;;;;;;;-143.90;100.00;55587.78;2083379;28;19921;-66
2021/12/15 02:48:17;;;;;;;;;;;;;;;-143.90;100.00;55569.91;2081257;28;19932;-66
2021/12/15 02:49:38;;;;;;;;;;;;;;;-143.90;100.00;55607.66;2082083;28;19925;-66
2021/12/15 02:50:59;;;;;;;;;;;;;;;-143.90;100.00;55575.88;2082005;28;19923;-66
2021/12/15 02:52:20;;;;;;;;;;;;;;;-143.90;100.00;55615.59;2082138;28;19921;-66
2021/12/15 02:53:41;;;;;;;;;;;;;;;-143.90;100.00;55619.56;2081054;28;19920;-66
2021/12/15 02:55:02;;;;;;;;;;;;;;;-143.90;100.00;55581.84;2081486;28;20019;-66
2021/12/15 02:56:23;;;;;;;;;;;;;;;-143.90;100.00;55597.72;2083481;28;19983;-66
2021/12/15 02:57:44;;;;;;;;;;;;;;;-143.90;100.00;55619.56;2083003;28;20330;-66
2021/12/15 02:59:07;;;;;;;;;;;;;;;-143.90;100.00;55583.81;2083169;28;20614;-66
2021/12/15 03:00:42;;;;;;;;;;;;;;;-143.90;100.00;55603.69;2081294;28;19921;-66
2021/12/15 03:02:14;;;;;;;;;;;;;;;-143.90;100.00;55575.88;2082421;28;19925;-66
2021/12/15 03:05:07;;;;;;;;;;;;;;;-143.90;100.00;55623.53;2074118;28;20364;-66
2021/12/15 03:06:36;;;;;;;;;;;;;;;-143.90;100.00;55540.13;2074080;28;19928;-66
2021/12/15 03:08:06;;;;;;;;;;;;;;;-143.90;100.00;55595.72;2088153;28;19921;-66
2021/12/15 03:15:20;;;;;;;;;;;;;;;-143.90;100.00;55575.88;2086507;28;19924;-66
2021/12/15 03:16:14;;;;;;;;;;;;;;;-143.90;100.00;55619.56;2086424;28;19928;-66
2021/12/15 03:17:35;;;;;;;;;;;;;;;-143.90;100.00;55589.78;2086560;28;19946;-66
2021/12/15 03:18:56;;;;;;;;;;;;;;;-143.90;100.00;55587.78;2085880;28;19944;-66
2021/12/15 03:20:18;;;;;;;;;;;;;;;-143.90;100.00;55595.72;2085003;28;19921;-66
2021/12/15 03:21:39;;;;;;;;;;;;;;;-143.90;100.00;55587.78;2085706;28;19921;-66
2021/12/15 03:23:00;;;;;;;;;;;;;;;-143.90;100.00;55635.44;2076180;28;19972;-67
2021/12/15 03:24:23;;;;;;;;;;;;;;;-143.90;100.00;55575.88;2082947;28;19979;-66
2021/12/15 03:25:44;;;;;;;;;;;;;;;-143.90;100.00;55579.84;2084890;28;19978;-67
2021/12/15 03:27:12;;;;;;;;;;;;;;;-143.90;100.00;55631.47;2086901;28;19921;-66
2021/12/15 03:33:38;;;;;;;;;;;;;;;-143.90;100.00;55599.69;2085027;28;20048;-66
2021/12/15 03:37:22;;;;;;;;;;;;;;;-143.90;100.00;55595.72;2077177;28;19928;-66
2021/12/15 03:38:10;;;;;;;;;;;;;;;-143.90;100.00;55575.88;2085952;28;20380;-66
2021/12/15 03:39:33;;;;;;;;;;;;;;;-143.90;100.00;55617.56;2086878;28;19951;-66
2021/12/15 03:40:54;;;;;;;;;;;;;;;-143.90;100.00;55607.66;2086308;28;20018;-67
2021/12/15 03:42:17;;;;;;;;;;;;;;;-143.90;100.00;55605.66;2085498;28;19925;-66
2021/12/15 03:43:38;;;;;;;;;;;;;;;-143.90;100.00;55619.56;2085866;28;20833;-67
2021/12/15 03:44:59;;;;;;;;;;;;;;;-143.90;100.00;55627.50;2084942;28;19935;-67
2021/12/15 03:46:19;;;;;;;;;;;;;;;-143.90;100.00;55569.91;2086443;28;20326;-66
2021/12/15 03:47:42;;;;;;;;;;;;;;;-143.90;100.00;55571.91;2085335;28;20614;-66
2021/12/15 03:49:03;;;;;;;;;;;;;;;-143.90;100.00;55563.97;2076133;28;19932;-66
2021/12/15 03:50:24;;;;;;;;;;;;;;;-143.90;100.00;55591.75;2082026;28;19921;-66
2021/12/15 03:51:45;;;;;;;;;;;;;;;-143.90;100.00;55575.88;2084013;28;19960;-66
2021/12/15 03:53:06;;;;;;;;;;;;;;;-143.90;100.00;55625.53;2085005;28;19975;-67
2021/12/15 03:54:27;;;;;;;;;;;;;;;-143.90;100.00;55599.69;2086200;28;20820;-66
2021/12/15 03:55:47;;;;;;;;;;;;;;;-143.90;100.00;55619.56;2086321;28;19927;-66
2021/12/15 03:57:08;;;;;;;;;;;;;;;-143.90;100.00;55611.63;2086643;28;19920;-66
2021/12/15 03:58:29;;;;;;;;;;;;;;;-143.90;100.00;55579.84;2085320;28;19917;-66
2021/12/15 03:59:50;;;;;;;;;;;;;;;-143.90;100.00;55631.47;2086057;28;19928;-66
2021/12/15 04:01:13;;;;;;;;;;;;;;;-143.90;100.00;55591.75;2084352;28;20023;-66
2021/12/15 04:02:33;;;;;;;;;;;;;;;-143.90;100.00;55605.66;2084371;28;19925;-66
2021/12/15 04:03:55;;;;;;;;;;;;;;;-143.90;100.00;55615.59;2083290;28;19924;-66
2021/12/15 04:05:17;;;;;;;;;;;;;;;-143.90;100.00;55595.72;2084919;28;19927;-66
2021/12/15 04:06:39;;;;;;;;;;;;;;;-143.90;100.00;55595.72;2085068;28;19927;-66
2021/12/15 04:08:00;;;;;;;;;;;;;;;-143.90;100.00;55603.69;2076451;28;19925;-66
2021/12/15 04:09:21;;;;;;;;;;;;;;;-143.90;100.00;55575.88;2082901;28;19935;-66
2021/12/15 04:10:41;;;;;;;;;;;;;;;-143.90;100.00;55611.63;2085340;28;19947;-66
2021/12/15 04:12:03;;;;;;;;;;;;;;;-143.90;100.00;55587.78;2082607;28;20076;-66
2021/12/15 04:13:23;;;;;;;;;;;;;;;-143.90;100.00;55589.78;2083785;28;19975;-66
2021/12/15 04:14:53;;;;;;;;;;;;;;;-143.90;100.00;55591.75;2090598;28;19928;-66
2021/12/15 04:16:40;;;;;;;;;;;;;;;-143.90;100.00;55607.66;2089273;28;19925;-66
2021/12/15 04:18:00;;;;;;;;;;;;;;;-143.90;100.00;55615.59;2088979;28;19982;-66
2021/12/15 04:19:21;;;;;;;;;;;;;;;-143.90;100.00;55587.78;2089203;28;19920;-66
2021/12/15 04:20:42;;;;;;;;;;;;;;;-143.90;100.00;55587.78;2090257;28;19971;-66
2021/12/15 04:22:03;;;;;;;;;;;;;;;-143.90;100.00;55565.94;2089335;28;19973;-66
2021/12/15 04:23:24;;;;;;;;;;;;;;;-143.90;100.00;55631.47;2089590;28;20003;-66
2021/12/15 04:24:45;;;;;;;;;;;;;;;-143.90;100.00;55605.66;2081681;28;19951;-66
2021/12/15 04:26:05;;;;;;;;;;;;;;;-143.90;100.00;55575.88;2085638;28;19927;-66
2021/12/15 04:27:26;;;;;;;;;;;;;;;-143.90;100.00;55583.81;2091337;28;19943;-66
2021/12/15 04:28:47;;;;;;;;;;;;;;;-143.90;100.00;55591.75;2092123;28;20303;-66
2021/12/15 04:30:08;;;;;;;;;;;;;;;-143.90;100.00;55595.72;2090787;28;19927;-66
2021/12/15 04:31:29;;;;;;;;;;;;;;;-143.90;100.00;55603.69;2089496;28;20382;-66
2021/12/15 04:32:50;;;;;;;;;;;;;;;-143.90;100.00;55599.69;2088080;28;19927;-66
2021/12/15 04:34:11;;;;;;;;;;;;;;;-143.90;100.00;55591.75;2090396;28;20006;-66
2021/12/15 04:35:32;;;;;;;;;;;;;;;-143.90;100.00;55595.72;2089066;28;20650;-66
2021/12/15 04:36:53;;;;;;;;;;;;;;;-143.90;100.00;55571.91;2089604;28;19925;-66
2021/12/15 04:38:14;;;;;;;;;;;;;;;-143.90;100.00;55603.69;2082603;28;19940;-66
2021/12/15 04:39:35;;;;;;;;;;;;;;;-143.90;100.00;55544.09;2087222;28;19924;-66
2021/12/15 04:40:57;;;;;;;;;;;;;;;-143.90;100.00;55591.75;2089294;28;20662;-66
2021/12/15 04:42:19;;;;;;;;;;;;;;;-143.90;100.00;55587.78;2090865;28;19928;-66
2021/12/15 04:43:40;;;;;;;;;;;;;;;-143.90;100.00;55639.41;2089011;28;21004;-66
2021/12/15 04:45:04;;;;;;;;;;;;;;;-143.90;100.00;55585.81;2088321;28;20275;-66
2021/12/15 04:46:26;;;;;;;;;;;;;;;-143.90;100.00;55627.50;2088667;28;20015;-66
2021/12/15 04:47:51;;;;;;;;;;;;;;;-143.90;100.00;55573.88;2088278;28;19920;-66
2021/12/15 04:49:12;;;;;;;;;;;;;;;-143.90;100.00;55587.78;2089364;28;19963;-66
2021/12/15 04:50:33;;;;;;;;;;;;;;;-143.90;100.00;55583.81;2088682;28;19947;-66
2021/12/15 04:51:54;;;;;;;;;;;;;;;-143.90;100.00;55603.69;2090479;28;19931;-66
2021/12/15 04:53:14;;;;;;;;;;;;;;;-143.90;100.00;55579.84;2089911;28;20024;-66
2021/12/15 04:54:35;;;;;;;;;;;;;;;-143.90;100.00;55599.69;2090991;28;19929;-66
2021/12/15 04:55:55;;;;;;;;;;;;;;;-143.90;100.00;55595.72;2083332;28;19936;-65
2021/12/15 04:57:17;;;;;;;;;;;;;;;-143.90;100.00;55581.84;2087104;28;20019;-66
2021/12/15 04:58:38;;;;;;;;;;;;;;;-143.90;100.00;55603.69;2089300;28;20444;-66
2021/12/15 04:59:59;;;;;;;;;;;;;;;-143.90;100.00;55611.63;2089440;28;19921;-66
2021/12/15 05:01:20;;;;;;;;;;;;;;;-143.90;100.00;55619.56;2089949;28;20525;-66
2021/12/15 05:02:41;;;;;;;;;;;;;;;-143.90;100.00;55599.69;2089435;28;19927;-66
2021/12/15 05:04:02;;;;;;;;;;;;;;;-143.90;100.00;55615.59;2087648;28;19920;-66
2021/12/15 05:05:23;;;;;;;;;;;;;;;-143.90;100.00;55621.53;2087399;28;20018;-66
2021/12/15 05:06:44;;;;;;;;;;;;;;;-143.90;100.00;55579.84;2088505;28;20364;-66
2021/12/15 05:08:05;;;;;;;;;;;;;;;-143.90;100.00;55585.81;2089974;28;19973;-65
2021/12/15 05:09:26;;;;;;;;;;;;;;;-143.90;100.00;55611.63;2089304;28;20017;-66
2021/12/15 05:10:47;;;;;;;;;;;;;;;-143.90;100.00;55560.00;2086840;28;19964;-67
2021/12/15 05:12:08;;;;;;;;;;;;;;;-143.90;100.00;55554.03;2088617;28;19995;-66
2021/12/15 05:13:29;;;;;;;;;;;;;;;-143.90;100.00;55623.53;2087592;28;19924;-66
2021/12/15 05:14:49;;;;;;;;;;;;;;;-143.90;100.00;55593.75;2087920;28;19980;-66
2021/12/15 05:16:16;;;;;;;;;;;;;;;-143.90;100.00;55575.88;2088963;28;20030;-66
2021/12/15 05:17:36;;;;;;;;;;;;;;;-143.90;100.00;55595.72;2089801;28;19921;-66
2021/12/15 05:18:57;;;;;;;;;;;;;;;-143.90;100.00;55591.75;2088627;28;19924;-66
2021/12/15 05:20:18;;;;;;;;;;;;;;;-143.90;100.00;55593.75;2088285;28;20368;-66
2021/12/15 05:21:39;;;;;;;;;;;;;;;-143.90;100.00;55591.75;2088102;28;19970;-66
2021/12/15 05:23:01;;;;;;;;;;;;;;;-143.90;100.00;55575.88;2089597;28;19981;-66
2021/12/15 05:25:48;;;;;;;;;;;;;;;-143.90;100.00;55587.78;2089296;28;19927;-66
2021/12/15 05:27:11;;;;;;;;;;;;;;;-143.90;100.00;55599.69;2089728;28;19924;-66
2021/12/15 05:28:31;;;;;;;;;;;;;;;-143.90;100.00;55563.97;2088589;28;19927;-65
2021/12/15 05:29:52;;;;;;;;;;;;;;;-143.90;100.00;55571.91;2088797;28;19916;-66
2021/12/15 05:31:13;;;;;;;;;;;;;;;-143.90;100.00;55635.44;2088983;28;19925;-66
2021/12/15 05:32:34;;;;;;;;;;;;;;;-143.90;100.00;55605.66;2088624;28;19935;-66
2021/12/15 05:33:54;;;;;;;;;;;;;;;-143.90;100.00;55593.75;2089075;28;19918;-66
2021/12/15 05:35:21;;;;;;;;;;;;;;;-143.90;100.00;55603.69;2088081;28;19947;-66
2021/12/15 05:36:43;;;;;;;;;;;;;;;-143.90;100.00;55575.88;2089198;28;19970;-66
2021/12/15 05:38:04;;;;;;;;;;;;;;;-143.90;100.00;55595.72;2090562;28;19924;-66
2021/12/15 05:39:25;;;;;;;;;;;;;;;-143.90;100.00;55583.81;2087234;28;19922;-66
2021/12/15 05:40:45;;;;;;;;;;;;;;;-143.90;100.00;55575.88;2087496;28;19927;-66
2021/12/15 05:42:06;;;;;;;;;;;;;;;-143.90;100.00;55619.56;2089455;28;19966;-66
2021/12/15 05:43:27;;;;;;;;;;;;;;;-143.90;100.00;55583.81;2090230;28;19920;-66
2021/12/15 05:44:48;;;;;;;;;;;;;;;-143.90;100.00;55589.78;2081022;28;19921;-66
2021/12/15 05:46:09;;;;;;;;;;;;;;;-143.90;100.00;55563.97;2085151;28;19966;-66
2021/12/15 05:47:29;;;;;;;;;;;;;;;-143.90;100.00;55603.69;2089528;28;19917;-66
2021/12/15 05:48:50;;;;;;;;;;;;;;;-143.90;100.00;55587.78;2088277;28;19920;-66
2021/12/15 05:50:11;;;;;;;;;;;;;;;-143.90;100.00;55605.66;2089251;28;20383;-66
2021/12/15 05:51:32;;;;;;;;;;;;;;;-143.90;100.00;55565.94;2088962;28;19917;-66
2021/12/15 05:52:53;;;;;;;;;;;;;;;-143.90;100.00;55635.44;2088505;28;19929;-66
2021/12/15 05:54:14;;;;;;;;;;;;;;;-143.90;100.00;55599.69;2087753;28;19932;-66
2021/12/15 05:55:35;;;;;;;;;;;;;;;-143.90;100.00;55577.84;2088777;28;19921;-66
2021/12/15 05:56:56;;;;;;;;;;;;;;;-143.90;100.00;55609.63;2087202;28;19928;-66
2021/12/15 05:58:17;;;;;;;;;;;;;;;-143.90;100.00;55601.69;2088193;28;20334;-66
2021/12/15 05:59:38;;;;;;;;;;;;;;;-143.90;100.00;55623.53;2089759;28;19916;-66
2021/12/15 06:00:58;;;;;;;;;;;;;;;-143.90;100.00;55627.50;2089281;28;20015;-66
2021/12/15 06:02:19;;;;;;;;;;;;;;;-143.90;100.00;55615.59;2088830;28;19916;-66
2021/12/15 06:03:40;;;;;;;;;;;;;;;-143.90;100.00;55575.88;2088013;28;19925;-66
2021/12/15 06:05:01;;;;;;;;;;;;;;;-143.90;100.00;55569.91;2089008;28;19968;-66
2021/12/15 06:06:22;;;;;;;;;;;;;;;-143.90;100.00;55599.69;2088002;28;19920;-66
2021/12/15 06:07:43;;;;;;;;;;;;;;;-143.90;100.00;55573.88;2088678;28;19931;-66
2021/12/15 06:09:04;;;;;;;;;;;;;;;-143.90;100.00;55593.75;2089933;28;19921;-66
2021/12/15 06:10:27;;;;;;;;;;;;;;;-143.90;100.00;55625.53;2088991;28;19930;-66
2021/12/15 06:11:51;;;;;;;;;;;;;;;-143.90;100.00;55591.75;2079657;28;20424;-66
2021/12/15 06:13:12;;;;;;;;;;;;;;;-143.90;100.00;55583.81;2085096;28;20354;-66
2021/12/15 06:14:34;;;;;;;;;;;;;;;-143.90;100.00;55591.75;2087370;28;20042;-66
2021/12/15 06:15:55;;;;;;;;;;;;;;;-143.90;100.00;55619.56;2090266;28;19920;-66
2021/12/15 06:17:15;;;;;;;;;;;;;;;-143.90;100.00;55567.94;2089795;28;19926;-66
2021/12/15 06:18:36;;;;;;;;;;;;;;;-143.90;100.00;55575.88;2091673;28;19921;-66
2021/12/15 06:19:57;;;;;;;;;;;;;;;-143.90;100.00;55571.91;2091449;28;19940;-66
2021/12/15 06:21:18;;;;;;;;;;;;;;;-143.90;100.00;55595.72;2090972;28;20003;-66
2021/12/15 06:22:41;;;;;;;;;;;;;;;-143.90;100.00;55595.72;2089427;28;20027;-66
2021/12/15 06:24:01;;;;;;;;;;;;;;;-143.90;100.00;55589.78;2082334;28;20288;-66
2021/12/15 06:25:22;;;;;;;;;;;;;;;-143.90;100.00;55599.69;2087090;28;20470;-66
2021/12/15 06:26:43;;;;;;;;;;;;;;;-143.90;100.00;55611.63;2092315;28;19931;-66
2021/12/15 06:28:04;;;;;;;;;;;;;;;-143.90;100.00;55591.75;2091147;28;19935;-66
2021/12/15 06:29:24;;;;;;;;;;;;;;;-143.90;100.00;55613.59;2089960;28;19973;-66
2021/12/15 06:30:45;;;;;;;;;;;;;;;-143.90;100.00;55579.84;2091419;28;20454;-66
2021/12/15 06:32:06;;;;;;;;;;;;;;;-143.90;100.00;55595.72;2089202;28;20002;-66
2021/12/15 06:33:28;;;;;;;;;;;;;;;-143.90;100.00;55583.81;2083251;28;19921;-66
2021/12/15 06:34:49;;;;;;;;;;;;;;;-143.90;100.00;55599.69;2079592;28;20019;-66
2021/12/15 06:36:11;;;;;;;;;;;;;;;-143.90;100.00;55627.50;2088001;28;19923;-66
2021/12/15 06:37:32;;;;;;;;;;;;;;;-143.90;100.00;55595.72;2089832;28;19921;-66
2021/12/15 06:38:53;;;;;;;;;;;;;;;-143.90;100.00;55583.81;2083065;28;19921;-66
2021/12/15 06:40:14;;;;;;;;;;;;;;;-143.90;100.00;55579.84;2087543;28;19931;-66
2021/12/15 06:41:35;;;;;;;;;;;;;;;-143.90;100.00;55587.78;2090421;28;19950;-66
2021/12/15 06:42:56;;;;;;;;;;;;;;;-143.90;100.00;55619.56;2089842;28;19971;-66
2021/12/15 06:44:16;;;;;;;;;;;;;;;-143.90;100.00;55605.66;2090502;28;19920;-66
2021/12/15 06:45:50;;;;;;;;;;;;;;;-143.90;100.00;55583.81;2090786;28;19920;-66
2021/12/15 06:58:47;;;;;;;;;;;;;;;-143.90;100.00;55671.19;2091947;28;19921;-66
2021/12/15 07:00:08;;;;;;;;;;;;;;;-143.90;100.00;55579.84;2089500;28;19916;-66
2021/12/15 07:01:29;;;;;;;;;;;;;;;-143.90;100.00;55567.94;2090426;28;20714;-66
2021/12/15 07:02:50;;;;;;;;;;;;;;;-143.90;100.00;55597.72;2090178;28;19917;-66
2021/12/15 07:04:12;;;;;;;;;;;;;;;-143.90;100.00;55609.63;2089366;28;19921;-66
2021/12/15 07:05:33;;;;;;;;;;;;;;;-143.90;100.00;55583.81;2089581;28;20020;-66
2021/12/15 07:06:54;;;;;;;;;;;;;;;-143.90;100.00;55599.69;2089981;28;19932;-66
2021/12/15 07:08:15;;;;;;;;;;;;;;;-143.90;100.00;55635.44;2089389;28;20031;-66
2021/12/15 07:09:36;;;;;;;;;;;;;;;-143.90;100.00;55595.72;2081084;28;19931;-66
2021/12/15 07:10:57;;;;;;;;;;;;;;;-143.90;100.00;55585.81;2086401;28;19916;-66
2021/12/15 07:12:17;;;;;;;;;;;;;;;-143.90;100.00;55548.06;2089098;28;19928;-66
2021/12/15 07:13:38;;;;;;;;;;;;;;;-143.90;100.00;55599.69;2090374;28;19964;-66
2021/12/15 07:15:00;;;;;;;;;;;;;;;-143.90;100.00;55607.66;2091540;28;19921;-66
2021/12/15 07:16:21;;;;;;;;;;;;;;;-143.90;100.00;55609.63;2091764;28;19927;-66
2021/12/15 07:17:44;;;;;;;;;;;;;;;-143.90;100.00;55548.06;2089331;28;19916;-66
2021/12/15 07:19:16;;;;;;;;;;;;;;;-143.90;100.00;55575.88;2089304;28;19971;-66
2021/12/15 07:22:14;;;;;;;;;;;;;;;-143.90;100.00;55583.81;2087677;28;19920;-66
2021/12/15 07:23:35;;;;;;;;;;;;;;;-143.90;100.00;55603.69;2090412;28;20061;-66
2021/12/15 07:24:56;;;;;;;;;;;;;;;-143.90;100.00;55591.75;2088587;28;20320;-67
2021/12/15 07:26:17;;;;;;;;;;;;;;;-143.90;100.00;55581.84;2089716;28;19921;-66
2021/12/15 07:27:38;;;;;;;;;;;;;;;-143.90;100.00;55619.56;2090671;28;19916;-66
2021/12/15 07:28:58;;;;;;;;;;;;;;;-143.90;100.00;55587.78;2089764;28;19920;-66
2021/12/15 07:30:19;;;;;;;;;;;;;;;-143.90;100.00;55625.53;2090051;28;20633;-66
2021/12/15 07:31:40;;;;;;;;;;;;;;;-143.90;100.00;55560.00;2090862;28;19962;-66
2021/12/15 07:33:01;;;;;;;;;;;;;;;-143.90;100.00;55571.91;2089873;28;19928;-66